Time;durP1;ratioP1;P1;durP2;ratioP2;P2;SDS_P1;SDS_P2;PMS_P1;PMS_P2;Temp;Humidity;BMP_temperature;BMP_pressure;BME280_temperature;BME280_humidity;BME280_pressure;Samples;Min_cycle;Max_cycle;Signal;HPM_P1;HPM_P2
2023/09/08 00:00:50;;;;;;;;;;;;;;;;;;5074681;28;19917;-53
2023/09/08 00:03:15;;;;;;;;;;;;;;;;;;5074164;28;19917;-54
2023/09/08 00:05:41;;;;;;;;;;;;;;;;;;5074604;28;19976;-54
2023/09/08 00:08:06;;;;;;;;;;;;;;;;;;5074483;28;19917;-51
2023/09/08 00:10:32;;;;;;;;;;;;;;;;;;5074547;28;19932;-53
2023/09/08 00:12:57;;;;;;;;;;;;;;;;;;5074486;28;19913;-49
2023/09/08 00:15:22;;;;;;;;;;;;;;;;;;5056987;28;19920;-53
2023/09/08 00:17:48;;;;;;;;;;;;;;;;;;5076860;28;19917;-54
2023/09/08 00:20:13;;;;;;;;;;;;;;;;;;5078136;28;19913;-54
2023/09/08 00:22:39;;;;;;;;;;;;;;;;;;5078216;28;19917;-52
2023/09/08 00:25:04;;;;;;;;;;;;;;;;;;5078280;28;19934;-52
2023/09/08 00:27:30;;;;;;;;;;;;;;;;;;5078131;28;19936;-54
2023/09/08 00:29:56;;;;;;;;;;;;;;;;;;5078227;28;19936;-50
2023/09/08 00:32:22;;;;;;;;;;;;;;;;;;5085167;28;19919;-52
2023/09/08 00:34:47;;;;;;;;;;;;;;;;;;5060685;28;19913;-55
2023/09/08 00:37:13;;;;;;;;;;;;;;;;;;5077856;28;19912;-52
2023/09/08 00:39:38;;;;;;;;;;;;;;;;;;5060679;28;19958;-53
2023/09/08 00:42:04;;;;;;;;;;;;;;;;;;5087574;28;19924;-52
2023/09/08 00:44:29;;;;;;;;;;;;;;;;;;5077924;28;19913;-52
2023/09/08 00:46:55;;;;;;;;;;;;;;;;;;5077752;28;19912;-52
2023/09/08 00:49:20;;;;;;;;;;;;;;;;;;5077644;28;19920;-53
2023/09/08 00:51:46;;;;;;;;;;;;;;;;;;5078550;28;19913;-50
2023/09/08 00:54:11;;;;;;;;;;;;;;;;;;5077766;28;19923;-50
2023/09/08 00:56:37;;;;;;;;;;;;;;;;;;5077584;28;19923;-51
2023/09/08 00:59:02;;;;;;;;;;;;;;;;;;5077582;28;19976;-56
2023/09/08 01:01:27;;;;;;;;;;;;;;;;;;5079477;28;19913;-50
2023/09/08 01:03:52;;;;;;;;;;;;;;;;;;5086398;28;19978;-50
2023/09/08 01:06:18;;;;;;;;;;;;;;;;;;5059110;28;19999;-51
2023/09/08 01:08:44;;;;;;;;;;;;;;;;;;5077288;28;19939;-52
2023/09/08 01:11:09;;;;;;;;;;;;;;;;;;5092788;28;19913;-52
2023/09/08 01:13:35;;;;;;;;;;;;;;;;;;5084789;28;19917;-50
2023/09/08 01:16:00;;;;;;;;;;;;;;;;;;5076826;28;19941;-50
2023/09/08 01:18:25;;;;;;;;;;;;;;;;;;5084551;28;19917;-52
2023/09/08 01:20:51;;;;;;;;;;;;;;;;;;5078319;28;19920;-54
2023/09/08 01:23:18;;;;;;;;;;;;;;;;;;5052533;28;19919;-49
2023/09/08 01:25:44;;;;;;;;;;;;;;;;;;5059474;28;19912;-53
2023/09/08 01:28:09;;;;;;;;;;;;;;;;;;5059098;28;19983;-55
2023/09/08 01:30:35;;;;;;;;;;;;;;;;;;5073451;28;19913;-54
2023/09/08 01:33:00;;;;;;;;;;;;;;;;;;5065151;28;19913;-55
2023/09/08 01:35:26;;;;;;;;;;;;;;;;;;5076732;28;19939;-55
2023/09/08 01:37:51;;;;;;;;;;;;;;;;;;5076996;28;19913;-54
2023/09/08 01:40:18;;;;;;;;;;;;;;;;;;5059294;28;20008;-53
2023/09/08 01:42:43;;;;;;;;;;;;;;;;;;5059410;28;19919;-53
2023/09/08 01:45:09;;;;;;;;;;;;;;;;;;5076457;28;19917;-54
2023/09/08 01:47:35;;;;;;;;;;;;;;;;;;5061251;28;19919;-53
2023/09/08 01:50:00;;;;;;;;;;;;;;;;;;5076694;28;19939;-53
2023/09/08 01:52:26;;;;;;;;;;;;;;;;;;5059174;28;19913;-53
2023/09/08 01:54:51;;;;;;;;;;;;;;;;;;5076437;28;19966;-52
2023/09/08 01:57:17;;;;;;;;;;;;;;;;;;5085592;28;19912;-53
2023/09/08 01:59:43;;;;;;;;;;;;;;;;;;5062174;28;19912;-53
2023/09/08 02:02:08;;;;;;;;;;;;;;;;;;5067265;28;19920;-53
2023/09/08 02:04:33;;;;;;;;;;;;;;;;;;5061911;28;19917;-54
2023/09/08 02:06:59;;;;;;;;;;;;;;;;;;5081928;28;19916;-56
2023/09/08 02:09:25;;;;;;;;;;;;;;;;;;5054331;28;19923;-55
2023/09/08 02:11:50;;;;;;;;;;;;;;;;;;5058786;28;19972;-54
2023/09/08 02:14:16;;;;;;;;;;;;;;;;;;5077227;28;19913;-55
2023/09/08 02:16:41;;;;;;;;;;;;;;;;;;5058675;28;19913;-54
2023/09/08 02:19:07;;;;;;;;;;;;;;;;;;5058758;28;19920;-49
2023/09/08 02:21:32;;;;;;;;;;;;;;;;;;5058589;28;19913;-50
2023/09/08 02:23:57;;;;;;;;;;;;;;;;;;5058256;28;19920;-48
2023/09/08 02:26:23;;;;;;;;;;;;;;;;;;5049864;28;19920;-51
2023/09/08 02:28:49;;;;;;;;;;;;;;;;;;5058418;28;20042;-49
2023/09/08 02:31:16;;;;;;;;;;;;;;;;;;5091601;28;19913;-53
2023/09/08 02:33:41;;;;;;;;;;;;;;;;;;5085932;28;19951;-55
2023/09/08 02:36:07;;;;;;;;;;;;;;;;;;5075796;28;19913;-54
2023/09/08 02:38:34;;;;;;;;;;;;;;;;;;5091603;28;19916;-50
2023/09/08 02:40:59;;;;;;;;;;;;;;;;;;5074477;28;19943;-50
2023/09/08 02:43:24;;;;;;;;;;;;;;;;;;5091930;28;19920;-55
2023/09/08 02:45:50;;;;;;;;;;;;;;;;;;5058011;28;19913;-56
2023/09/08 02:48:16;;;;;;;;;;;;;;;;;;5063725;28;19985;-55
2023/09/08 02:50:42;;;;;;;;;;;;;;;;;;5058022;28;19913;-55
2023/09/08 02:53:07;;;;;;;;;;;;;;;;;;5065999;28;19928;-53
2023/09/08 02:55:32;;;;;;;;;;;;;;;;;;5063367;28;19972;-54
2023/09/08 02:57:58;;;;;;;;;;;;;;;;;;5077889;28;19913;-52
2023/09/08 03:00:24;;;;;;;;;;;;;;;;;;5057819;28;19932;-52
2023/09/08 03:02:49;;;;;;;;;;;;;;;;;;5057792;28;19951;-53
2023/09/08 03:05:15;;;;;;;;;;;;;;;;;;5075154;28;19913;-55
2023/09/08 03:07:40;;;;;;;;;;;;;;;;;;5075207;28;19975;-52
2023/09/08 03:10:06;;;;;;;;;;;;;;;;;;5075327;28;19913;-53
2023/09/08 03:12:31;;;;;;;;;;;;;;;;;;5057880;28;19960;-52
2023/09/08 03:14:57;;;;;;;;;;;;;;;;;;5075135;28;19937;-55
2023/09/08 03:17:22;;;;;;;;;;;;;;;;;;5074905;28;19916;-53
2023/09/08 03:19:48;;;;;;;;;;;;;;;;;;5075121;28;19920;-58
2023/09/08 03:22:13;;;;;;;;;;;;;;;;;;5075706;28;19917;-54
2023/09/08 03:24:38;;;;;;;;;;;;;;;;;;5086907;28;19991;-56
2023/09/08 03:27:03;;;;;;;;;;;;;;;;;;5090335;28;19913;-55
2023/09/08 03:29:29;;;;;;;;;;;;;;;;;;5057489;28;19901;-56
2023/09/08 03:31:54;;;;;;;;;;;;;;;;;;5044285;28;19948;-55
2023/09/08 03:34:20;;;;;;;;;;;;;;;;;;5057519;28;20030;-55
2023/09/08 03:36:46;;;;;;;;;;;;;;;;;;5057448;28;19912;-56
2023/09/08 03:39:12;;;;;;;;;;;;;;;;;;5081940;28;19913;-54
2023/09/08 03:41:37;;;;;;;;;;;;;;;;;;5057482;28;19913;-55
2023/09/08 03:44:03;;;;;;;;;;;;;;;;;;5057030;28;19976;-57
2023/09/08 03:46:28;;;;;;;;;;;;;;;;;;5074730;28;19939;-56
2023/09/08 03:48:58;;;;;;;;;;;;;;;;;;5080353;28;19917;-57
2023/09/08 03:51:24;;;;;;;;;;;;;;;;;;5076778;28;19935;-53
2023/09/08 03:53:49;;;;;;;;;;;;;;;;;;5078726;28;19916;-55
2023/09/08 03:56:15;;;;;;;;;;;;;;;;;;5061230;28;19948;-53
2023/09/08 03:58:40;;;;;;;;;;;;;;;;;;5078789;28;19913;-53
2023/09/08 04:01:06;;;;;;;;;;;;;;;;;;5078662;28;19912;-53
2023/09/08 04:03:31;;;;;;;;;;;;;;;;;;5063090;28;19935;-52
2023/09/08 04:05:57;;;;;;;;;;;;;;;;;;5066736;28;19920;-53
2023/09/08 04:08:22;;;;;;;;;;;;;;;;;;5085735;28;19916;-54
2023/09/08 04:10:48;;;;;;;;;;;;;;;;;;5066784;28;19913;-55
2023/09/08 04:13:13;;;;;;;;;;;;;;;;;;5060999;28;19934;-54
2023/09/08 04:15:39;;;;;;;;;;;;;;;;;;5078365;28;19927;-52
2023/09/08 04:18:04;;;;;;;;;;;;;;;;;;5090910;28;19927;-53
2023/09/08 04:20:30;;;;;;;;;;;;;;;;;;5103781;28;19909;-51
2023/09/08 04:22:55;;;;;;;;;;;;;;;;;;5099659;28;19912;-51
2023/09/08 04:25:21;;;;;;;;;;;;;;;;;;5103358;28;19983;-52
2023/09/08 04:27:46;;;;;;;;;;;;;;;;;;5097551;28;19919;-53
2023/09/08 04:30:11;;;;;;;;;;;;;;;;;;5097303;28;19927;-53
2023/09/08 04:32:37;;;;;;;;;;;;;;;;;;5084505;28;19916;-51
2023/09/08 04:35:03;;;;;;;;;;;;;;;;;;5097902;28;19915;-55
2023/09/08 04:37:30;;;;;;;;;;;;;;;;;;5098118;28;20009;-52
2023/09/08 04:39:55;;;;;;;;;;;;;;;;;;5097093;28;19919;-52
2023/09/08 04:42:21;;;;;;;;;;;;;;;;;;5097872;28;19941;-52
2023/09/08 04:44:46;;;;;;;;;;;;;;;;;;5097777;28;19916;-51
2023/09/08 04:47:12;;;;;;;;;;;;;;;;;;5097063;28;19912;-54
2023/09/08 04:49:37;;;;;;;;;;;;;;;;;;5096887;28;19999;-53
2023/09/08 04:52:03;;;;;;;;;;;;;;;;;;5096882;28;19913;-55
2023/09/08 04:54:29;;;;;;;;;;;;;;;;;;5108273;28;19938;-55
2023/09/08 04:56:55;;;;;;;;;;;;;;;;;;5084086;28;19935;-51
2023/09/08 04:59:22;;;;;;;;;;;;;;;;;;5096686;28;19916;-55
2023/09/08 05:01:49;;;;;;;;;;;;;;;;;;5096616;28;19939;-54
2023/09/08 05:04:15;;;;;;;;;;;;;;;;;;5104279;28;19920;-53
2023/09/08 05:06:40;;;;;;;;;;;;;;;;;;5096823;28;19912;-52
2023/09/08 05:09:06;;;;;;;;;;;;;;;;;;5079671;28;19916;-52
2023/09/08 05:11:32;;;;;;;;;;;;;;;;;;5096685;28;19992;-55
2023/09/08 05:13:58;;;;;;;;;;;;;;;;;;5101491;28;19923;-56
2023/09/08 05:16:37;;;;;;;;;;;;;;;;;;5108427;28;19940;-49
2023/09/08 05:19:03;;;;;;;;;;;;;;;;;;5059685;28;19917;-55
2023/09/08 05:21:30;;;;;;;;;;;;;;;;;;5059976;28;19916;-56
2023/09/08 05:23:55;;;;;;;;;;;;;;;;;;5079315;28;19923;-51
2023/09/08 05:26:21;;;;;;;;;;;;;;;;;;5069299;28;19916;-51
2023/09/08 05:28:46;;;;;;;;;;;;;;;;;;5059339;28;19916;-55
2023/09/08 05:31:12;;;;;;;;;;;;;;;;;;5077239;28;19980;-53
2023/09/08 05:33:37;;;;;;;;;;;;;;;;;;5058701;28;19999;-53
2023/09/08 05:36:03;;;;;;;;;;;;;;;;;;5072101;28;19916;-52
2023/09/08 05:38:29;;;;;;;;;;;;;;;;;;5092345;28;19916;-57
2023/09/08 05:40:55;;;;;;;;;;;;;;;;;;5059472;28;19909;-51
2023/09/08 05:43:20;;;;;;;;;;;;;;;;;;5076718;28;19935;-52
2023/09/08 05:45:46;;;;;;;;;;;;;;;;;;5082324;28;19913;-53
2023/09/08 05:48:11;;;;;;;;;;;;;;;;;;5058990;28;19952;-52
2023/09/08 05:50:37;;;;;;;;;;;;;;;;;;5059371;28;19923;-58
2023/09/08 05:53:02;;;;;;;;;;;;;;;;;;5058916;28;19912;-56
2023/09/08 05:55:27;;;;;;;;;;;;;;;;;;5064503;28;20121;-54
2023/09/08 05:57:53;;;;;;;;;;;;;;;;;;5058988;28;19947;-55
2023/09/08 06:00:19;;;;;;;;;;;;;;;;;;5063658;28;19917;-56
2023/09/08 06:02:48;;;;;;;;;;;;;;;;;;5058878;28;19913;-56
2023/09/08 06:05:15;;;;;;;;;;;;;;;;;;5064724;28;19919;-53
2023/09/08 06:07:40;;;;;;;;;;;;;;;;;;5080110;28;19913;-54
2023/09/08 06:10:07;;;;;;;;;;;;;;;;;;5058891;28;19951;-55
2023/09/08 06:12:32;;;;;;;;;;;;;;;;;;5074259;28;19917;-57
2023/09/08 06:14:58;;;;;;;;;;;;;;;;;;5059209;28;19944;-57
2023/09/08 06:17:23;;;;;;;;;;;;;;;;;;5073223;28;19968;-53
2023/09/08 06:19:50;;;;;;;;;;;;;;;;;;5095333;28;19970;-55
2023/09/08 06:22:15;;;;;;;;;;;;;;;;;;5095092;28;19912;-55
2023/09/08 06:24:42;;;;;;;;;;;;;;;;;;5095305;28;19918;-55
2023/09/08 06:27:08;;;;;;;;;;;;;;;;;;5095126;28;19913;-52
2023/09/08 06:29:33;;;;;;;;;;;;;;;;;;5095343;28;19917;-56
2023/09/08 06:31:59;;;;;;;;;;;;;;;;;;5095004;28;19944;-52
2023/09/08 06:34:24;;;;;;;;;;;;;;;;;;5094952;28;19912;-54
2023/09/08 06:36:49;;;;;;;;;;;;;;;;;;5097019;28;19923;-53
2023/09/08 06:39:15;;;;;;;;;;;;;;;;;;5094874;28;19912;-53
2023/09/08 06:41:40;;;;;;;;;;;;;;;;;;5094632;28;19931;-55
2023/09/08 06:44:08;;;;;;;;;;;;;;;;;;5094800;28;19927;-55
2023/09/08 06:46:33;;;;;;;;;;;;;;;;;;5094366;28;19944;-56
2023/09/08 06:48:59;;;;;;;;;;;;;;;;;;5094681;28;19947;-54
2023/09/08 06:51:25;;;;;;;;;;;;;;;;;;5094463;28;19955;-57
2023/09/08 06:53:50;;;;;;;;;;;;;;;;;;5094701;28;19912;-51
2023/09/08 06:56:16;;;;;;;;;;;;;;;;;;5103527;28;19912;-54
2023/09/08 06:58:41;;;;;;;;;;;;;;;;;;5094662;28;19988;-52
2023/09/08 07:01:07;;;;;;;;;;;;;;;;;;5095468;28;19917;-53
2023/09/08 07:03:36;;;;;;;;;;;;;;;;;;5094655;28;19972;-52
2023/09/08 07:06:04;;;;;;;;;;;;;;;;;;5094359;28;19934;-51
2023/09/08 07:08:29;;;;;;;;;;;;;;;;;;5094124;28;20562;-54
2023/09/08 07:10:55;;;;;;;;;;;;;;;;;;5105773;28;19912;-56
2023/09/08 07:13:21;;;;;;;;;;;;;;;;;;5094339;28;19927;-50
2023/09/08 07:15:46;;;;;;;;;;;;;;;;;;5094214;28;19912;-55
2023/09/08 07:18:12;;;;;;;;;;;;;;;;;;5094030;28;19976;-54
2023/09/08 07:20:37;;;;;;;;;;;;;;;;;;5094151;28;19954;-54
2023/09/08 07:23:03;;;;;;;;;;;;;;;;;;5093801;28;19924;-57
2023/09/08 07:25:28;;;;;;;;;;;;;;;;;;5094151;28;19935;-56
2023/09/08 07:27:53;;;;;;;;;;;;;;;;;;5093940;28;19983;-55
2023/09/08 07:30:20;;;;;;;;;;;;;;;;;;5093603;28;19959;-50
2023/09/08 07:32:45;;;;;;;;;;;;;;;;;;5094212;28;19912;-50
2023/09/08 07:35:14;;;;;;;;;;;;;;;;;;5093876;28;19984;-56
2023/09/08 07:37:40;;;;;;;;;;;;;;;;;;5094273;28;19947;-53
2023/09/08 07:40:06;;;;;;;;;;;;;;;;;;5094041;28;19967;-55
2023/09/08 07:42:31;;;;;;;;;;;;;;;;;;5095035;28;19923;-52
2023/09/08 07:44:57;;;;;;;;;;;;;;;;;;5095095;28;19912;-54
2023/09/08 07:47:22;;;;;;;;;;;;;;;;;;5106054;28;19912;-55
2023/09/08 07:49:48;;;;;;;;;;;;;;;;;;5094616;28;19921;-55
2023/09/08 07:52:13;;;;;;;;;;;;;;;;;;5094635;28;19920;-54
2023/09/08 07:54:39;;;;;;;;;;;;;;;;;;5094608;28;19924;-55
2023/09/08 07:57:04;;;;;;;;;;;;;;;;;;5094921;28;19917;-54
2023/09/08 07:59:30;;;;;;;;;;;;;;;;;;5094863;28;19908;-55
2023/09/08 08:01:56;;;;;;;;;;;;;;;;;;5094786;28;19938;-55
2023/09/08 08:04:21;;;;;;;;;;;;;;;;;;5094585;28;19952;-53
2023/09/08 08:06:48;;;;;;;;;;;;;;;;;;5094738;28;19913;-55
2023/09/08 08:09:13;;;;;;;;;;;;;;;;;;5087158;28;19956;-56
2023/09/08 08:11:38;;;;;;;;;;;;;;;;;;5084528;28;19917;-54
2023/09/08 08:14:03;;;;;;;;;;;;;;;;;;5112566;28;19991;-56
2023/09/08 08:16:29;;;;;;;;;;;;;;;;;;5095841;28;20011;-55
2023/09/08 08:18:54;;;;;;;;;;;;;;;;;;5073860;28;19938;-52
2023/09/08 08:21:19;;;;;;;;;;;;;;;;;;5074138;28;19917;-52
2023/09/08 08:23:44;;;;;;;;;;;;;;;;;;5073967;28;19913;-58
2023/09/08 08:26:10;;;;;;;;;;;;;;;;;;5073622;28;19917;-56
2023/09/08 08:28:36;;;;;;;;;;;;;;;;;;5066411;28;20000;-55
2023/09/08 08:31:01;;;;;;;;;;;;;;;;;;5061260;28;19917;-51
2023/09/08 08:33:26;;;;;;;;;;;;;;;;;;5056384;28;19913;-55
2023/09/08 08:35:51;;;;;;;;;;;;;;;;;;5069527;28;19913;-56
2023/09/08 08:38:17;;;;;;;;;;;;;;;;;;5066885;28;19913;-56
2023/09/08 08:40:43;;;;;;;;;;;;;;;;;;5064276;28;19913;-57
2023/09/08 08:43:08;;;;;;;;;;;;;;;;;;5069311;28;19924;-53
2023/09/08 08:45:33;;;;;;;;;;;;;;;;;;5069164;28;19976;-54
2023/09/08 08:47:58;;;;;;;;;;;;;;;;;;5084080;28;19921;-56
2023/09/08 08:50:24;;;;;;;;;;;;;;;;;;5077392;28;19953;-55
2023/09/08 08:52:49;;;;;;;;;;;;;;;;;;5070874;28;19921;-57
2023/09/08 08:55:15;;;;;;;;;;;;;;;;;;5077403;28;19935;-52
2023/09/08 08:57:40;;;;;;;;;;;;;;;;;;5080691;28;19913;-53
2023/09/08 09:00:09;;;;;;;;;;;;;;;;;;5077259;28;19923;-57
2023/09/08 09:02:34;;;;;;;;;;;;;;;;;;5077688;28;19931;-53
2023/09/08 09:05:00;;;;;;;;;;;;;;;;;;5077277;28;19913;-55
2023/09/08 09:07:25;;;;;;;;;;;;;;;;;;5077175;28;19913;-52
2023/09/08 09:09:51;;;;;;;;;;;;;;;;;;5076867;28;19916;-56
2023/09/08 09:12:17;;;;;;;;;;;;;;;;;;5076932;28;19973;-55
2023/09/08 09:14:43;;;;;;;;;;;;;;;;;;5077096;28;19916;-57
2023/09/08 09:17:08;;;;;;;;;;;;;;;;;;5077243;28;19956;-54
2023/09/08 09:19:35;;;;;;;;;;;;;;;;;;5076710;28;19913;-58
2023/09/08 09:22:01;;;;;;;;;;;;;;;;;;5076667;28;19909;-55
2023/09/08 09:24:26;;;;;;;;;;;;;;;;;;5076434;28;19913;-54
2023/09/08 09:26:51;;;;;;;;;;;;;;;;;;5078803;28;19931;-54
2023/09/08 09:29:17;;;;;;;;;;;;;;;;;;5064478;28;19917;-56
2023/09/08 09:31:42;;;;;;;;;;;;;;;;;;5076835;28;19976;-56
2023/09/08 09:34:07;;;;;;;;;;;;;;;;;;5067976;28;19912;-56
2023/09/08 09:36:33;;;;;;;;;;;;;;;;;;5071838;28;19908;-56
2023/09/08 09:38:59;;;;;;;;;;;;;;;;;;5071907;28;19936;-55
2023/09/08 09:41:24;;;;;;;;;;;;;;;;;;5069339;28;19917;-56
2023/09/08 09:43:50;;;;;;;;;;;;;;;;;;5076087;28;19913;-57
2023/09/08 09:46:16;;;;;;;;;;;;;;;;;;5077305;28;19917;-58
2023/09/08 09:48:41;;;;;;;;;;;;;;;;;;5068303;28;19928;-55
2023/09/08 09:51:06;;;;;;;;;;;;;;;;;;5068747;28;19913;-57
2023/09/08 09:53:32;;;;;;;;;;;;;;;;;;5070995;28;20028;-55
2023/09/08 09:55:57;;;;;;;;;;;;;;;;;;5068608;28;19927;-57
2023/09/08 09:58:23;;;;;;;;;;;;;;;;;;5082673;28;19920;-57
2023/09/08 10:00:49;;;;;;;;;;;;;;;;;;5070616;28;19913;-59
2023/09/08 10:03:14;;;;;;;;;;;;;;;;;;5070797;28;19913;-58
2023/09/08 10:05:40;;;;;;;;;;;;;;;;;;5068315;28;19932;-59
2023/09/08 10:08:06;;;;;;;;;;;;;;;;;;5071632;28;19917;-56
2023/09/08 10:10:32;;;;;;;;;;;;;;;;;;5083685;28;19913;-54
2023/09/08 10:12:57;;;;;;;;;;;;;;;;;;5067696;28;19981;-55
2023/09/08 10:15:23;;;;;;;;;;;;;;;;;;5067729;28;19913;-58
2023/09/08 10:17:48;;;;;;;;;;;;;;;;;;5070965;28;19917;-55
2023/09/08 10:20:15;;;;;;;;;;;;;;;;;;5075842;28;19916;-54
2023/09/08 10:22:42;;;;;;;;;;;;;;;;;;5073435;28;19967;-58
2023/09/08 10:25:08;;;;;;;;;;;;;;;;;;5068405;28;19909;-58
2023/09/08 10:27:33;;;;;;;;;;;;;;;;;;5056345;28;19980;-58
2023/09/08 10:29:58;;;;;;;;;;;;;;;;;;5075295;28;19927;-55
2023/09/08 10:32:24;;;;;;;;;;;;;;;;;;5067984;28;19912;-60
2023/09/08 10:34:49;;;;;;;;;;;;;;;;;;5055921;28;19924;-57
2023/09/08 10:37:14;;;;;;;;;;;;;;;;;;5078678;28;19927;-58
2023/09/08 10:39:41;;;;;;;;;;;;;;;;;;5077203;28;19914;-58
2023/09/08 10:42:07;;;;;;;;;;;;;;;;;;5075229;28;19916;-58
2023/09/08 10:44:32;;;;;;;;;;;;;;;;;;5064859;28;19940;-58
2023/09/08 10:46:57;;;;;;;;;;;;;;;;;;5075313;28;19924;-60
2023/09/08 10:49:22;;;;;;;;;;;;;;;;;;5075348;28;19917;-60
2023/09/08 10:51:47;;;;;;;;;;;;;;;;;;5075084;28;19913;-58
2023/09/08 10:54:13;;;;;;;;;;;;;;;;;;5074979;28;19917;-59
2023/09/08 10:56:38;;;;;;;;;;;;;;;;;;5072496;28;19913;-60
2023/09/08 10:59:04;;;;;;;;;;;;;;;;;;5075267;28;19956;-59
2023/09/08 11:01:30;;;;;;;;;;;;;;;;;;5070497;28;19941;-60
2023/09/08 11:03:55;;;;;;;;;;;;;;;;;;5074555;28;19912;-59
2023/09/08 11:06:23;;;;;;;;;;;;;;;;;;5063168;28;20964;-58
2023/09/08 11:08:52;;;;;;;;;;;;;;;;;;5063595;28;19917;-59
2023/09/08 11:11:18;;;;;;;;;;;;;;;;;;5070574;28;19913;-59
2023/09/08 11:13:46;;;;;;;;;;;;;;;;;;5066860;28;20026;-59
2023/09/08 11:16:12;;;;;;;;;;;;;;;;;;5072471;28;19952;-57
2023/09/08 11:18:37;;;;;;;;;;;;;;;;;;5078603;28;19924;-58
2023/09/08 11:21:05;;;;;;;;;;;;;;;;;;5065810;28;20856;-58
2023/09/08 11:23:31;;;;;;;;;;;;;;;;;;5080886;28;19922;-59
2023/09/08 11:25:56;;;;;;;;;;;;;;;;;;5056962;28;19919;-59
2023/09/08 11:28:21;;;;;;;;;;;;;;;;;;5071663;28;19924;-57
2023/09/08 11:30:46;;;;;;;;;;;;;;;;;;5064520;28;19913;-59
2023/09/08 11:33:12;;;;;;;;;;;;;;;;;;5073743;28;19971;-59
2023/09/08 11:35:37;;;;;;;;;;;;;;;;;;5073836;28;19917;-59
2023/09/08 11:38:04;;;;;;;;;;;;;;;;;;5068037;28;19919;-59
2023/09/08 11:40:30;;;;;;;;;;;;;;;;;;5060914;28;19917;-58
2023/09/08 11:42:55;;;;;;;;;;;;;;;;;;5061684;28;19970;-60
2023/09/08 11:45:22;;;;;;;;;;;;;;;;;;5074248;28;19928;-59
2023/09/08 11:47:49;;;;;;;;;;;;;;;;;;5074749;28;19908;-59
2023/09/08 11:50:18;;;;;;;;;;;;;;;;;;5065981;28;19983;-58
2023/09/08 11:52:43;;;;;;;;;;;;;;;;;;5073619;28;19921;-58
2023/09/08 11:55:09;;;;;;;;;;;;;;;;;;5073092;28;19920;-60
2023/09/08 11:57:34;;;;;;;;;;;;;;;;;;5074386;28;19924;-60
2023/09/08 11:59:59;;;;;;;;;;;;;;;;;;5068978;28;19921;-60
2023/09/08 12:02:25;;;;;;;;;;;;;;;;;;5090083;28;19940;-59
2023/09/08 12:04:51;;;;;;;;;;;;;;;;;;5074309;28;19920;-59
2023/09/08 12:07:18;;;;;;;;;;;;;;;;;;5071129;28;19913;-63
2023/09/08 12:09:43;;;;;;;;;;;;;;;;;;5078624;28;19916;-60
2023/09/08 12:12:09;;;;;;;;;;;;;;;;;;5069917;28;20066;-60
2023/09/08 12:14:34;;;;;;;;;;;;;;;;;;5071691;28;19984;-59
2023/09/08 12:16:59;;;;;;;;;;;;;;;;;;5068335;28;19928;-59
2023/09/08 12:19:25;;;;;;;;;;;;;;;;;;5093334;28;19913;-58
2023/09/08 12:21:50;;;;;;;;;;;;;;;;;;5078058;28;19920;-59
2023/09/08 12:24:15;;;;;;;;;;;;;;;;;;5095811;28;20141;-60
2023/09/08 12:26:41;;;;;;;;;;;;;;;;;;5086314;28;19984;-59
2023/09/08 12:29:07;;;;;;;;;;;;;;;;;;5097743;28;19932;-60
2023/09/08 12:31:32;;;;;;;;;;;;;;;;;;5097775;28;19920;-59
2023/09/08 12:33:57;;;;;;;;;;;;;;;;;;5088900;28;19936;-59
2023/09/08 12:36:22;;;;;;;;;;;;;;;;;;5089379;28;19912;-60
2023/09/08 12:38:47;;;;;;;;;;;;;;;;;;5089074;28;19913;-57
2023/09/08 12:41:13;;;;;;;;;;;;;;;;;;5097579;28;19917;-59
2023/09/08 12:43:38;;;;;;;;;;;;;;;;;;5088033;28;19912;-59
2023/09/08 12:46:03;;;;;;;;;;;;;;;;;;5095778;28;19913;-61
2023/09/08 12:48:28;;;;;;;;;;;;;;;;;;5083228;28;19916;-63
2023/09/08 12:50:54;;;;;;;;;;;;;;;;;;5090224;28;19912;-61
2023/09/08 12:53:20;;;;;;;;;;;;;;;;;;5094487;28;19916;-61
2023/09/08 12:55:45;;;;;;;;;;;;;;;;;;5097847;28;19913;-61
2023/09/08 12:58:10;;;;;;;;;;;;;;;;;;5087980;28;19919;-62
2023/09/08 13:00:35;;;;;;;;;;;;;;;;;;5089853;28;19919;-61
2023/09/08 13:03:01;;;;;;;;;;;;;;;;;;5086419;28;19912;-62
2023/09/08 13:05:27;;;;;;;;;;;;;;;;;;5104267;28;19927;-62
2023/09/08 13:07:53;;;;;;;;;;;;;;;;;;5089705;28;19913;-61
2023/09/08 13:10:19;;;;;;;;;;;;;;;;;;5096918;28;19920;-61
2023/09/08 13:12:45;;;;;;;;;;;;;;;;;;5095675;28;19912;-61
2023/09/08 13:15:10;;;;;;;;;;;;;;;;;;5091163;28;19942;-62
2023/09/08 13:17:36;;;;;;;;;;;;;;;;;;5086404;28;19917;-61
2023/09/08 13:20:02;;;;;;;;;;;;;;;;;;5076864;28;19916;-62
2023/09/08 13:22:27;;;;;;;;;;;;;;;;;;5063601;28;20376;-61
2023/09/08 13:24:53;;;;;;;;;;;;;;;;;;5074575;28;19992;-62
2023/09/08 13:27:18;;;;;;;;;;;;;;;;;;5076669;28;19970;-61
2023/09/08 13:29:44;;;;;;;;;;;;;;;;;;5076909;28;19943;-61
2023/09/08 13:32:09;;;;;;;;;;;;;;;;;;5078649;28;19924;-61
2023/09/08 13:34:35;;;;;;;;;;;;;;;;;;5074366;28;19960;-62
2023/09/08 13:37:01;;;;;;;;;;;;;;;;;;5061556;28;19916;-61
2023/09/08 13:39:26;;;;;;;;;;;;;;;;;;5075002;28;19913;-60
2023/09/08 13:41:51;;;;;;;;;;;;;;;;;;5080220;28;19913;-62
2023/09/08 13:44:17;;;;;;;;;;;;;;;;;;5075879;28;19916;-61
2023/09/08 13:46:43;;;;;;;;;;;;;;;;;;5076936;28;19935;-61
2023/09/08 13:49:08;;;;;;;;;;;;;;;;;;5076419;28;19916;-61
2023/09/08 13:51:34;;;;;;;;;;;;;;;;;;5059179;28;19924;-62
2023/09/08 13:54:00;;;;;;;;;;;;;;;;;;5076464;28;19992;-61
2023/09/08 13:56:26;;;;;;;;;;;;;;;;;;5072540;28;19973;-62
2023/09/08 13:58:51;;;;;;;;;;;;;;;;;;5070523;28;19944;-62
2023/09/08 14:01:16;;;;;;;;;;;;;;;;;;5075288;28;19916;-63
2023/09/08 14:03:42;;;;;;;;;;;;;;;;;;5089288;28;19927;-62
2023/09/08 14:06:07;;;;;;;;;;;;;;;;;;5063315;28;19939;-63
2023/09/08 14:08:32;;;;;;;;;;;;;;;;;;5076182;28;19920;-62
2023/09/08 14:10:57;;;;;;;;;;;;;;;;;;5073402;28;19913;-62
2023/09/08 14:13:23;;;;;;;;;;;;;;;;;;5062719;28;19952;-62
2023/09/08 14:15:48;;;;;;;;;;;;;;;;;;5062027;28;19932;-62
2023/09/08 14:18:14;;;;;;;;;;;;;;;;;;5064054;28;19917;-62
2023/09/08 14:20:39;;;;;;;;;;;;;;;;;;5084549;28;19987;-62
2023/09/08 14:23:07;;;;;;;;;;;;;;;;;;5075880;28;19928;-62
2023/09/08 14:25:33;;;;;;;;;;;;;;;;;;5070743;28;19913;-62
2023/09/08 14:27:58;;;;;;;;;;;;;;;;;;5066882;28;19917;-61
2023/09/08 14:30:24;;;;;;;;;;;;;;;;;;5069222;28;19912;-61
2023/09/08 14:32:50;;;;;;;;;;;;;;;;;;5062321;28;19917;-62
2023/09/08 14:35:15;;;;;;;;;;;;;;;;;;5065554;28;19913;-62
2023/09/08 14:37:41;;;;;;;;;;;;;;;;;;5073087;28;19917;-62
2023/09/08 14:40:06;;;;;;;;;;;;;;;;;;5073400;28;19992;-62
2023/09/08 14:42:32;;;;;;;;;;;;;;;;;;5069318;28;19939;-62
2023/09/08 14:44:57;;;;;;;;;;;;;;;;;;5065412;28;19972;-62
2023/09/08 14:47:22;;;;;;;;;;;;;;;;;;5075338;28;19966;-63
2023/09/08 14:49:48;;;;;;;;;;;;;;;;;;5069938;28;19916;-62
2023/09/08 14:52:13;;;;;;;;;;;;;;;;;;5077505;28;19984;-64
2023/09/08 14:54:38;;;;;;;;;;;;;;;;;;5075014;28;19913;-60
2023/09/08 14:57:04;;;;;;;;;;;;;;;;;;5067087;28;19967;-60
2023/09/08 14:59:29;;;;;;;;;;;;;;;;;;5059951;28;20010;-60
2023/09/08 15:01:56;;;;;;;;;;;;;;;;;;5077787;28;19924;-59
2023/09/08 15:04:21;;;;;;;;;;;;;;;;;;5068837;28;19923;-60
2023/09/08 15:06:46;;;;;;;;;;;;;;;;;;5074594;28;19913;-59
2023/09/08 15:09:12;;;;;;;;;;;;;;;;;;5056035;28;19925;-60
2023/09/08 15:11:37;;;;;;;;;;;;;;;;;;5056631;28;19990;-59
2023/09/08 15:14:03;;;;;;;;;;;;;;;;;;5074740;28;19935;-59
2023/09/08 15:16:28;;;;;;;;;;;;;;;;;;5066858;28;19913;-60
2023/09/08 15:18:53;;;;;;;;;;;;;;;;;;5065632;28;19932;-59
2023/09/08 15:21:25;;;;;;;;;;;;;;;;;;5079472;28;19912;-59
2023/09/08 15:23:51;;;;;;;;;;;;;;;;;;5072675;28;19916;-59
2023/09/08 15:26:17;;;;;;;;;;;;;;;;;;5063813;28;19917;-59
2023/09/08 15:28:42;;;;;;;;;;;;;;;;;;5066607;28;19916;-58
2023/09/08 15:31:07;;;;;;;;;;;;;;;;;;5066351;28;19921;-59
2023/09/08 15:33:32;;;;;;;;;;;;;;;;;;5047201;28;19936;-59
2023/09/08 15:35:58;;;;;;;;;;;;;;;;;;5069717;28;19913;-59
2023/09/08 15:38:23;;;;;;;;;;;;;;;;;;5074250;28;19916;-59
2023/09/08 15:40:48;;;;;;;;;;;;;;;;;;5072982;28;19912;-59
2023/09/08 15:43:14;;;;;;;;;;;;;;;;;;5074721;28;19928;-59
2023/09/08 15:45:40;;;;;;;;;;;;;;;;;;5074131;28;19921;-59
2023/09/08 15:48:05;;;;;;;;;;;;;;;;;;5077320;28;19913;-59
2023/09/08 15:50:31;;;;;;;;;;;;;;;;;;5079828;28;19923;-59
2023/09/08 15:52:57;;;;;;;;;;;;;;;;;;5061126;28;19913;-58
2023/09/08 15:55:22;;;;;;;;;;;;;;;;;;5078762;28;19976;-60
2023/09/08 15:57:48;;;;;;;;;;;;;;;;;;5078437;28;20023;-59
2023/09/08 16:00:13;;;;;;;;;;;;;;;;;;5068787;28;19931;-59
2023/09/08 16:02:39;;;;;;;;;;;;;;;;;;5080601;28;19912;-58
2023/09/08 16:05:04;;;;;;;;;;;;;;;;;;5078071;28;19921;-59
2023/09/08 16:07:30;;;;;;;;;;;;;;;;;;5077959;28;19948;-59
2023/09/08 16:09:55;;;;;;;;;;;;;;;;;;5078136;28;19916;-57
2023/09/08 16:12:21;;;;;;;;;;;;;;;;;;5086137;28;19916;-59
2023/09/08 16:14:46;;;;;;;;;;;;;;;;;;5078358;28;19912;-58
2023/09/08 16:17:12;;;;;;;;;;;;;;;;;;5079492;28;19924;-58
2023/09/08 16:19:37;;;;;;;;;;;;;;;;;;5071758;28;19920;-56
2023/09/08 16:22:03;;;;;;;;;;;;;;;;;;5068652;28;19913;-56
2023/09/08 16:24:28;;;;;;;;;;;;;;;;;;5072561;28;19917;-57
2023/09/08 16:26:55;;;;;;;;;;;;;;;;;;5071616;28;19984;-55
2023/09/08 16:29:21;;;;;;;;;;;;;;;;;;5069112;28;19948;-56
2023/09/08 16:31:46;;;;;;;;;;;;;;;;;;5075813;28;19920;-55
2023/09/08 16:34:12;;;;;;;;;;;;;;;;;;5083384;28;19951;-58